Terminal Aerodrome Forecast
Issued by NWS Mobile, AL

Home | Current Version | Previous Version | Text Only | Print | Product List | Glossary On
Versions: 1 2 3 4 5 6 7 8 9 10 11 12 13 14 15
000
FTUS44 KMOB 230523
TAFPNS
TAF
KPNS 230523Z 2306/2406 22007KT P6SM BKN009 OVC016
     FM231400 27010KT P6SM OVC020
     FM231800 23014G22KT P6SM SCT035
     FM240300 VRB03KT P6SM SKC=

USA.gov is the U.S. government's official web portal to all federal, state and local government web resources and services.